Time;durP1;ratioP1;P1;durP2;ratioP2;P2;SDS_P1;SDS_P2;PMS_P1;PMS_P2;Temp;Humidity;BMP_temperature;BMP_pressure;BME280_temperature;BME280_humidity;BME280_pressure;Samples;Min_cycle;Max_cycle;Signal;HPM_P1;HPM_P2
2021/03/22 00:04:57;;;;;;;14.32;11.48;;;;;;;;;;4974316;29;20232;-96
2021/03/22 00:07:23;;;;;;;17.52;13.93;;;;;;;;;;4952552;28;20236;-96
2021/03/22 00:09:50;;;;;;;19.27;14.45;;;;;;;;;;4965074;29;20227;-96
2021/03/22 00:15:32;;;;;;;15.18;12.38;;;;;;;;;;4969787;29;20235;-96
2021/03/22 00:17:59;;;;;;;16.45;12.27;;;;;;;;;;4955407;29;20294;-96
2021/03/22 00:20:26;;;;;;;13.63;11.20;;;;;;;;;;4940546;29;20207;-94
2021/03/22 00:22:52;;;;;;;13.52;10.73;;;;;;;;;;4940288;29;20218;-95
2021/03/22 00:25:19;;;;;;;12.88;10.40;;;;;;;;;;4962146;29;20232;-96
2021/03/22 00:28:00;;;;;;;10.70;8.77;;;;;;;;;;4951147;29;20224;-96
2021/03/22 00:30:29;;;;;;;11.23;8.73;;;;;;;;;;4950181;29;20223;-93
2021/03/22 00:32:55;;;;;;;9.40;8.40;;;;;;;;;;4953539;29;20220;-92
2021/03/22 00:35:21;;;;;;;10.13;8.75;;;;;;;;;;4956288;29;20208;-93
2021/03/22 00:37:48;;;;;;;9.10;8.10;;;;;;;;;;4951126;29;20228;-92
2021/03/22 00:40:15;;;;;;;9.98;8.65;;;;;;;;;;4955618;29;20211;-92
2021/03/22 00:45:37;;;;;;;8.55;6.75;;;;;;;;;;5026728;23;20257;-95
2021/03/22 00:48:03;;;;;;;8.77;7.78;;;;;;;;;;4941833;29;20236;-94
2021/03/22 00:50:32;;;;;;;7.88;6.55;;;;;;;;;;4935669;29;20211;-93
2021/03/22 00:52:59;;;;;;;8.77;7.28;;;;;;;;;;4939127;29;20229;-95
2021/03/22 00:55:25;;;;;;;10.55;7.25;;;;;;;;;;4934174;29;20839;-92
2021/03/22 00:57:52;;;;;;;8.05;6.28;;;;;;;;;;4937786;29;20225;-94
2021/03/22 01:00:19;;;;;;;10.63;8.55;;;;;;;;;;4938479;29;20208;-93
2021/03/22 01:02:46;;;;;;;13.73;9.38;;;;;;;;;;4932236;29;20222;-94
2021/03/22 01:05:13;;;;;;;11.23;8.95;;;;;;;;;;4926708;29;20213;-94
2021/03/22 01:07:39;;;;;;;11.85;8.68;;;;;;;;;;4940478;29;20250;-94
2021/03/22 01:10:07;;;;;;;10.10;8.05;;;;;;;;;;4933300;29;20209;-94
2021/03/22 01:12:33;;;;;;;9.95;8.25;;;;;;;;;;4942073;29;20216;-95
2021/03/22 01:14:59;;;;;;;8.83;7.93;;;;;;;;;;4933083;29;20215;-95
2021/03/22 01:17:25;;;;;;;7.55;6.45;;;;;;;;;;4938259;28;20525;-95
2021/03/22 01:19:52;;;;;;;8.25;6.80;;;;;;;;;;4927802;29;20208;-96
2021/03/22 01:22:18;;;;;;;8.23;6.95;;;;;;;;;;4921257;29;20212;-94
2021/03/22 01:24:44;;;;;;;7.80;6.03;;;;;;;;;;4932567;29;20232;-94
2021/03/22 01:27:11;;;;;;;7.43;6.13;;;;;;;;;;4931239;29;20636;-93
2021/03/22 01:29:39;;;;;;;6.90;6.20;;;;;;;;;;4932927;28;20222;-91
2021/03/22 01:32:05;;;;;;;8.10;6.72;;;;;;;;;;4943195;29;20205;-92
2021/03/22 01:34:31;;;;;;;7.93;5.75;;;;;;;;;;4933106;29;20235;-92
2021/03/22 01:36:59;;;;;;;7.30;6.23;;;;;;;;;;4934249;29;20313;-92
2021/03/22 01:39:25;;;;;;;9.65;7.28;;;;;;;;;;4932765;29;20475;-95
2021/03/22 01:41:57;;;;;;;8.73;6.82;;;;;;;;;;4939597;29;20219;-95
2021/03/22 01:44:24;;;;;;;7.43;6.10;;;;;;;;;;4946602;28;20215;-96
2021/03/22 01:46:52;;;;;;;7.53;6.15;;;;;;;;;;4965146;28;20238;-94
2021/03/22 01:49:19;;;;;;;6.00;5.40;;;;;;;;;;4960422;29;20204;-92
2021/03/22 01:51:45;;;;;;;8.13;5.88;;;;;;;;;;4955668;29;20211;-93
2021/03/22 01:54:12;;;;;;;11.25;7.18;;;;;;;;;;4955067;29;20306;-93
2021/03/22 01:56:43;;;;;;;9.05;6.05;;;;;;;;;;4951770;29;20241;-93
2021/03/22 01:59:10;;;;;;;9.55;6.65;;;;;;;;;;4954438;29;20204;-93
2021/03/22 02:01:36;;;;;;;12.85;7.13;;;;;;;;;;4952723;29;20222;-93
2021/03/22 02:04:02;;;;;;;9.00;6.70;;;;;;;;;;4962143;29;20212;-93
2021/03/22 02:06:28;;;;;;;7.72;6.57;;;;;;;;;;4951415;29;20551;-93
2021/03/22 02:08:56;;;;;;;9.70;6.80;;;;;;;;;;4961529;29;20667;-93
2021/03/22 02:11:24;;;;;;;8.60;6.68;;;;;;;;;;4954271;29;20550;-94
2021/03/22 02:13:50;;;;;;;9.68;6.78;;;;;;;;;;4949593;29;20210;-96
2021/03/22 02:16:18;;;;;;;9.38;7.20;;;;;;;;;;4956707;28;20236;-96
2021/03/22 02:42:38;;;;;;;6.35;5.53;;;;;;;;;;4989943;23;20244;-96
2021/03/22 02:45:05;;;;;;;6.50;5.03;;;;;;;;;;4943446;29;20328;-96
2021/03/22 02:47:32;;;;;;;6.43;5.40;;;;;;;;;;4945473;29;20224;-96
2021/03/22 02:49:59;;;;;;;5.47;4.50;;;;;;;;;;4947878;29;20218;-96
2021/03/22 02:52:38;;;;;;;7.07;5.00;;;;;;;;;;4948502;29;20203;-96
2021/03/22 02:55:08;;;;;;;7.63;4.30;;;;;;;;;;4948759;29;20213;-96
2021/03/22 02:57:40;;;;;;;5.80;5.20;;;;;;;;;;4943041;29;20235;-96
2021/03/22 03:00:08;;;;;;;8.50;6.05;;;;;;;;;;4952601;29;20224;-96
2021/03/22 03:16:36;;;;;;;4.07;3.60;;;;;;;;;;5646836;23;20222;-96
2021/03/22 03:19:04;;;;;;;4.68;3.88;;;;;;;;;;4968598;28;20210;-96
2021/03/22 03:21:31;;;;;;;4.45;3.85;;;;;;;;;;4948295;29;20208;-96
2021/03/22 03:24:00;;;;;;;6.07;4.75;;;;;;;;;;4951886;29;20207;-96
2021/03/22 03:26:26;;;;;;;5.40;4.90;;;;;;;;;;4951714;29;20209;-96
2021/03/22 03:28:54;;;;;;;6.45;5.43;;;;;;;;;;4962865;29;20215;-96
2021/03/22 03:31:20;;;;;;;5.97;5.25;;;;;;;;;;4962132;29;20270;-95
2021/03/22 03:33:46;;;;;;;6.22;4.65;;;;;;;;;;4966169;29;20212;-96
2021/03/22 03:36:15;;;;;;;4.47;4.07;;;;;;;;;;4949574;29;20265;-95
2021/03/22 03:38:57;;;;;;;4.65;4.10;;;;;;;;;;4954994;29;20213;-96
2021/03/22 03:41:32;;;;;;;5.03;4.20;;;;;;;;;;4956911;29;20218;-96
2021/03/22 03:43:58;;;;;;;5.45;4.60;;;;;;;;;;4948946;29;20206;-96
2021/03/22 03:46:27;;;;;;;5.95;4.85;;;;;;;;;;4957262;29;20244;-96
2021/03/22 03:48:57;;;;;;;8.10;5.70;;;;;;;;;;4962126;29;20234;-96
2021/03/22 03:51:44;;;;;;;5.30;4.80;;;;;;;;;;4968408;28;20207;-96
2021/03/22 03:54:10;;;;;;;5.40;4.80;;;;;;;;;;4956483;29;20212;-94
2021/03/22 03:56:37;;;;;;;4.80;4.05;;;;;;;;;;4953809;29;20276;-93
2021/03/22 03:59:03;;;;;;;4.05;3.65;;;;;;;;;;4956957;29;20204;-91
2021/03/22 04:01:29;;;;;;;3.55;3.25;;;;;;;;;;4955334;29;20208;-91
2021/03/22 04:03:55;;;;;;;3.90;3.43;;;;;;;;;;4953118;29;20223;-92
2021/03/22 04:06:22;;;;;;;4.25;3.75;;;;;;;;;;4957025;29;20463;-92
2021/03/22 04:08:50;;;;;;;4.25;3.85;;;;;;;;;;4951304;29;20682;-92
2021/03/22 04:11:19;;;;;;;4.65;3.65;;;;;;;;;;4957222;29;20208;-94
2021/03/22 04:13:45;;;;;;;4.57;3.90;;;;;;;;;;4962374;29;20220;-93
2021/03/22 04:16:13;;;;;;;7.03;4.60;;;;;;;;;;4965714;29;20281;-93
2021/03/22 04:18:39;;;;;;;6.85;4.95;;;;;;;;;;4959316;29;20493;-94
2021/03/22 04:21:06;;;;;;;4.32;3.75;;;;;;;;;;4964372;29;20202;-94
2021/03/22 04:23:32;;;;;;;4.70;4.20;;;;;;;;;;4946498;28;20216;-95
2021/03/22 04:26:00;;;;;;;5.40;3.70;;;;;;;;;;4948608;29;20204;-93
2021/03/22 04:28:26;;;;;;;4.50;4.10;;;;;;;;;;4953273;29;20211;-92
2021/03/22 04:30:52;;;;;;;9.30;6.53;;;;;;;;;;4955393;29;20200;-93
2021/03/22 04:33:18;;;;;;;4.07;3.33;;;;;;;;;;4956847;29;20240;-94
2021/03/22 04:35:44;;;;;;;3.33;3.03;;;;;;;;;;4957324;29;20619;-92
2021/03/22 04:38:10;;;;;;;5.00;4.00;;;;;;;;;;4952716;28;20232;-93
2021/03/22 04:40:36;;;;;;;4.82;4.10;;;;;;;;;;4956652;29;20953;-94
2021/03/22 04:43:03;;;;;;;4.25;3.85;;;;;;;;;;4958807;29;20260;-95
2021/03/22 04:45:30;;;;;;;3.60;3.00;;;;;;;;;;4953501;29;20214;-96
2021/03/22 04:47:56;;;;;;;3.45;3.17;;;;;;;;;;4956943;29;20211;-95
2021/03/22 04:50:23;;;;;;;8.25;6.18;;;;;;;;;;4956032;29;20227;-96
2021/03/22 04:52:50;;;;;;;7.90;5.80;;;;;;;;;;4970442;28;20248;-96
2021/03/22 04:55:18;;;;;;;7.05;5.60;;;;;;;;;;4965245;28;20215;-96
2021/03/22 04:57:45;;;;;;;4.18;3.78;;;;;;;;;;4967178;29;20254;-96
2021/03/22 05:00:36;;;;;;;3.25;2.95;;;;;;;;;;4964720;29;20189;-96
2021/03/22 05:03:07;;;;;;;4.88;2.90;;;;;;;;;;4957665;29;20204;-96
2021/03/22 05:05:34;;;;;;;3.30;3.00;;;;;;;;;;4952278;29;20224;-96
2021/03/22 05:08:03;;;;;;;4.53;3.88;;;;;;;;;;4954905;29;20244;-96
2021/03/22 05:10:33;;;;;;;4.70;4.30;;;;;;;;;;4966217;28;20297;-96
2021/03/22 05:12:59;;;;;;;3.15;2.80;;;;;;;;;;4967935;28;20214;-96
2021/03/22 05:15:46;;;;;;;4.90;4.07;;;;;;;;;;4963824;28;20208;-96
2021/03/22 05:23:31;;;;;;;6.60;5.70;;;;;;;;;;5072654;23;20277;-96
2021/03/22 05:25:58;;;;;;;6.18;5.18;;;;;;;;;;4946543;29;20218;-95
2021/03/22 05:28:25;;;;;;;8.35;6.20;;;;;;;;;;4957773;29;20211;-96
2021/03/22 05:30:52;;;;;;;11.82;7.18;;;;;;;;;;4951254;29;20216;-93
2021/03/22 05:33:19;;;;;;;10.93;7.82;;;;;;;;;;4934996;29;20212;-93
2021/03/22 05:35:46;;;;;;;11.23;7.50;;;;;;;;;;4959872;29;20239;-93
2021/03/22 05:38:12;;;;;;;10.60;7.88;;;;;;;;;;4954517;28;20242;-93
2021/03/22 05:40:40;;;;;;;11.00;9.10;;;;;;;;;;4950072;29;20211;-93
2021/03/22 05:43:12;;;;;;;15.65;11.60;;;;;;;;;;4952918;29;20460;-93
2021/03/22 05:45:45;;;;;;;10.40;7.80;;;;;;;;;;4952303;29;20216;-93
2021/03/22 05:48:23;;;;;;;13.55;9.85;;;;;;;;;;4953454;29;20215;-94
2021/03/22 05:51:02;;;;;;;12.63;10.02;;;;;;;;;;4954079;29;20205;-93
2021/03/22 05:53:36;;;;;;;12.80;9.63;;;;;;;;;;4953553;29;20215;-93
2021/03/22 05:56:05;;;;;;;16.02;11.50;;;;;;;;;;4953655;29;20208;-94
2021/03/22 05:58:42;;;;;;;16.95;13.45;;;;;;;;;;4955025;29;20210;-93
2021/03/22 06:01:14;;;;;;;16.10;12.48;;;;;;;;;;4955181;29;20195;-93
2021/03/22 06:03:44;;;;;;;15.20;11.52;;;;;;;;;;4951178;29;20203;-93
2021/03/22 06:06:14;;;;;;;19.40;14.15;;;;;;;;;;4954484;29;20240;-93
2021/03/22 06:08:45;;;;;;;20.80;15.65;;;;;;;;;;4952706;29;20213;-94
2021/03/22 06:11:18;;;;;;;22.05;15.43;;;;;;;;;;4946135;29;20200;-95
2021/03/22 06:13:47;;;;;;;22.05;15.43;;;;;;;;;;4937271;29;20216;-95
2021/03/22 06:16:19;;;;;;;21.38;16.30;;;;;;;;;;4939191;29;20298;-96
2021/03/22 06:18:53;;;;;;;35.58;23.40;;;;;;;;;;4946045;29;20248;-96
2021/03/22 06:27:26;;;;;;;43.35;27.98;;;;;;;;;;5015875;23;20207;-96
2021/03/22 06:30:11;;;;;;;35.63;22.60;;;;;;;;;;4960164;29;20191;-96
2021/03/22 06:32:41;;;;;;;27.10;18.02;;;;;;;;;;4970430;29;20198;-96
2021/03/22 06:35:16;;;;;;;28.88;17.40;;;;;;;;;;4970341;29;20209;-96
2021/03/22 06:37:44;;;;;;;26.10;16.88;;;;;;;;;;4960058;29;20257;-96
2021/03/22 06:49:00;;;;;;;30.80;19.85;;;;;;;;;;4959511;29;20212;-96
2021/03/22 06:51:56;;;;;;;34.05;17.13;;;;;;;;;;4966668;29;20240;-96
2021/03/22 06:54:33;;;;;;;31.02;16.25;;;;;;;;;;4982734;23;20231;-96
2021/03/22 06:57:09;;;;;;;32.63;16.80;;;;;;;;;;4978853;29;20258;-96
2021/03/22 07:07:53;;;;;;;16.80;12.00;;;;;;;;;;4976993;28;20233;-95
2021/03/22 07:10:20;;;;;;;17.35;11.68;;;;;;;;;;4955672;28;20214;-95
2021/03/22 07:12:46;;;;;;;18.85;12.45;;;;;;;;;;4975500;28;20207;-94
2021/03/22 07:15:16;;;;;;;17.30;11.90;;;;;;;;;;4969297;28;20266;-95
2021/03/22 07:17:43;;;;;;;18.50;12.27;;;;;;;;;;4971933;28;20223;-93
2021/03/22 07:20:12;;;;;;;16.13;11.43;;;;;;;;;;4971673;28;20222;-92
2021/03/22 07:22:38;;;;;;;13.98;10.75;;;;;;;;;;4972259;28;20253;-90
2021/03/22 07:25:06;;;;;;;16.05;11.30;;;;;;;;;;4970246;28;20211;-89
2021/03/22 07:27:39;;;;;;;18.25;12.10;;;;;;;;;;4976379;28;20210;-89
2021/03/22 07:30:25;;;;;;;22.02;13.25;;;;;;;;;;4971082;28;20207;-88
2021/03/22 07:32:55;;;;;;;18.42;12.55;;;;;;;;;;4970305;28;20219;-88
2021/03/22 07:35:45;;;;;;;19.60;12.52;;;;;;;;;;4975023;28;20914;-90
2021/03/22 07:38:17;;;;;;;24.90;17.50;;;;;;;;;;4967619;28;20236;-92
2021/03/22 07:40:49;;;;;;;24.95;16.45;;;;;;;;;;4964531;28;20205;-91
2021/03/22 07:43:24;;;;;;;20.75;13.13;;;;;;;;;;4971869;28;20266;-91
2021/03/22 07:45:55;;;;;;;17.27;12.88;;;;;;;;;;4952437;28;20191;-92
2021/03/22 07:48:27;;;;;;;21.33;14.52;;;;;;;;;;4960272;28;20218;-93
2021/03/22 07:50:57;;;;;;;23.27;16.02;;;;;;;;;;4959294;28;20201;-96
2021/03/22 07:53:28;;;;;;;14.48;11.02;;;;;;;;;;4969593;28;20221;-96
2021/03/22 07:55:56;;;;;;;9.60;8.50;;;;;;;;;;4978195;28;20207;-96
2021/03/22 07:58:38;;;;;;;10.63;8.32;;;;;;;;;;4977458;28;20242;-95
2021/03/22 08:01:09;;;;;;;9.80;7.65;;;;;;;;;;4978818;28;20203;-96
2021/03/22 08:03:39;;;;;;;6.82;6.15;;;;;;;;;;4968797;28;20213;-94
2021/03/22 08:06:13;;;;;;;8.45;7.40;;;;;;;;;;4979149;28;20330;-95
2021/03/22 08:08:45;;;;;;;14.50;9.23;;;;;;;;;;4972767;28;20219;-96
2021/03/22 08:11:14;;;;;;;11.02;8.45;;;;;;;;;;4987634;28;20271;-95
2021/03/22 08:13:56;;;;;;;11.60;9.20;;;;;;;;;;4972616;28;20231;-95
2021/03/22 08:16:32;;;;;;;11.68;9.25;;;;;;;;;;4985653;28;20198;-96
2021/03/22 08:27:43;;;;;;;6.00;5.50;;;;;;;;;;5235955;23;20253;-94
2021/03/22 08:30:22;;;;;;;6.10;5.50;;;;;;;;;;4957094;29;20236;-94
2021/03/22 08:32:51;;;;;;;5.57;4.88;;;;;;;;;;4965374;29;20217;-94
2021/03/22 08:35:24;;;;;;;7.60;5.45;;;;;;;;;;4954118;29;20219;-95
2021/03/22 08:37:54;;;;;;;5.75;4.90;;;;;;;;;;4959253;29;20233;-96
2021/03/22 08:40:28;;;;;;;6.30;4.97;;;;;;;;;;4953516;28;20215;-96
2021/03/22 08:42:57;;;;;;;5.35;4.85;;;;;;;;;;4962566;29;20254;-96
2021/03/22 08:45:42;;;;;;;5.40;4.90;;;;;;;;;;4962533;28;20202;-96
2021/03/22 08:48:11;;;;;;;5.63;4.82;;;;;;;;;;4950856;29;20205;-96
2021/03/22 08:50:39;;;;;;;5.57;5.03;;;;;;;;;;4960436;29;20207;-96
2021/03/22 08:53:12;;;;;;;5.50;5.00;;;;;;;;;;4954400;29;20204;-95
2021/03/22 08:55:44;;;;;;;5.25;4.70;;;;;;;;;;4962650;29;20236;-94
2021/03/22 08:58:26;;;;;;;6.28;5.68;;;;;;;;;;4959245;29;20256;-94
2021/03/22 09:00:54;;;;;;;7.07;6.32;;;;;;;;;;4932624;29;20295;-93
2021/03/22 09:03:29;;;;;;;6.95;5.68;;;;;;;;;;4948710;29;20219;-92
2021/03/22 09:06:09;;;;;;;6.00;5.38;;;;;;;;;;4952235;28;20214;-91
2021/03/22 09:08:36;;;;;;;6.97;5.72;;;;;;;;;;4948765;29;20210;-90
2021/03/22 09:11:14;;;;;;;5.75;5.15;;;;;;;;;;4952702;29;20220;-91
2021/03/22 09:13:49;;;;;;;6.65;6.05;;;;;;;;;;4951569;29;20249;-90
2021/03/22 09:16:39;;;;;;;5.70;5.10;;;;;;;;;;4953504;29;20212;-90
2021/03/22 09:19:27;;;;;;;4.30;3.90;;;;;;;;;;4959116;28;20274;-90
2021/03/22 09:22:09;;;;;;;4.70;4.18;;;;;;;;;;4952789;29;20210;-90
2021/03/22 09:24:45;;;;;;;3.88;3.58;;;;;;;;;;4958512;28;20213;-90
2021/03/22 09:27:26;;;;;;;8.48;3.63;;;;;;;;;;4953915;29;20303;-91
2021/03/22 09:29:55;;;;;;;6.10;5.13;;;;;;;;;;4960415;29;20216;-92
2021/03/22 09:32:42;;;;;;;5.85;5.32;;;;;;;;;;4946674;29;20930;-91
2021/03/22 09:35:27;;;;;;;4.65;4.25;;;;;;;;;;4947304;28;20220;-90
2021/03/22 09:37:54;;;;;;;4.00;3.70;;;;;;;;;;4951685;29;20238;-91
2021/03/22 09:40:39;;;;;;;5.15;4.75;;;;;;;;;;4945634;29;20290;-92
2021/03/22 09:43:28;;;;;;;5.30;4.80;;;;;;;;;;4955043;29;20238;-91
2021/03/22 09:46:04;;;;;;;16.02;12.05;;;;;;;;;;4920320;28;20215;-94
2021/03/22 09:48:31;;;;;;;32.40;20.85;;;;;;;;;;4948751;29;20203;-95
2021/03/22 09:51:13;;;;;;;45.50;28.10;;;;;;;;;;4964105;29;20218;-94
2021/03/22 09:53:49;;;;;;;9.27;7.30;;;;;;;;;;4938716;29;20459;-95
2021/03/22 10:22:33;;;;;;;7.43;6.70;;;;;;;;;;4955465;29;20206;-96
2021/03/22 10:25:09;;;;;;;9.10;8.10;;;;;;;;;;4965958;28;20450;-95
2021/03/22 10:30:30;;;;;;;10.83;9.33;;;;;;;;;;4966297;28;20271;-96
2021/03/22 10:35:52;;;;;;;6.23;5.63;;;;;;;;;;4958021;29;20207;-96
2021/03/22 10:41:26;;;;;;;6.37;5.77;;;;;;;;;;4976569;29;20450;-95
2021/03/22 10:43:57;;;;;;;6.65;5.82;;;;;;;;;;4975310;29;20560;-96
2021/03/22 11:59:17;;;;;;;11.10;9.13;;;;;;;;;;4943572;29;20186;-96
2021/03/22 12:10:30;;;;;;;19.80;13.60;;;;;;;;;;4946558;29;20262;-96
2021/03/22 12:12:59;;;;;;;14.30;11.93;;;;;;;;;;4946309;29;20212;-96
2021/03/22 12:15:29;;;;;;;16.33;13.18;;;;;;;;;;4958238;29;20449;-96
2021/03/22 12:20:47;;;;;;;13.13;11.52;;;;;;;;;;4947758;29;20255;-95
2021/03/22 12:23:32;;;;;;;16.30;12.98;;;;;;;;;;4945617;29;20213;-95
2021/03/22 12:26:12;;;;;;;21.35;15.45;;;;;;;;;;4941554;29;20221;-96
2021/03/22 12:28:54;;;;;;;19.35;15.52;;;;;;;;;;4953463;29;20300;-96
2021/03/22 12:31:22;;;;;;;23.10;15.40;;;;;;;;;;4955791;29;20228;-96
2021/03/22 12:42:50;;;;;;;19.80;14.70;;;;;;;;;;5009791;23;20228;-96
2021/03/22 12:48:19;;;;;;;18.10;15.23;;;;;;;;;;4961924;29;20629;-96
2021/03/22 12:51:05;;;;;;;15.23;12.60;;;;;;;;;;4947643;29;20213;-96
2021/03/22 12:53:32;;;;;;;20.92;15.25;;;;;;;;;;4945723;29;20224;-96
2021/03/22 12:56:00;;;;;;;19.00;15.55;;;;;;;;;;4957602;29;20207;-96
2021/03/22 13:04:54;;;;;;;18.05;14.82;;;;;;;;;;4955476;29;20241;-94
2021/03/22 13:10:52;;;;;;;19.60;14.50;;;;;;;;;;4919136;29;20242;-94
2021/03/22 13:25:57;;;;;;;10.77;8.63;;;;;;;;;;4969575;29;20182;-96
2021/03/22 13:28:31;;;;;;;9.88;7.88;;;;;;;;;;5010635;23;20304;-96
2021/03/22 13:31:04;;;;;;;7.30;6.50;;;;;;;;;;4979784;28;20199;-96
2021/03/22 13:39:30;;;;;;;7.72;5.72;;;;;;;;;;5044796;23;20227;-96
2021/03/22 13:42:42;;;;;;;7.57;5.57;;;;;;;;;;5007884;23;20254;-95
2021/03/22 13:45:30;;;;;;;7.97;5.90;;;;;;;;;;4955518;29;20210;-96
2021/03/22 13:48:14;;;;;;;15.07;5.60;;;;;;;;;;4964583;29;20238;-96
2021/03/22 13:50:41;;;;;;;5.65;4.68;;;;;;;;;;4963985;28;20238;-95
2021/03/22 13:53:07;;;;;;;6.07;5.47;;;;;;;;;;4961565;29;20222;-94
2021/03/22 13:55:33;;;;;;;6.90;6.18;;;;;;;;;;4959720;29;20231;-94
2021/03/22 13:57:59;;;;;;;9.73;6.43;;;;;;;;;;4946125;29;20260;-95
2021/03/22 14:00:25;;;;;;;9.05;6.65;;;;;;;;;;4956700;29;20263;-95
2021/03/22 14:02:52;;;;;;;7.10;6.40;;;;;;;;;;4944502;29;20260;-94
2021/03/22 14:05:19;;;;;;;10.45;7.82;;;;;;;;;;4951103;29;21151;-95
2021/03/22 14:07:46;;;;;;;8.77;6.75;;;;;;;;;;4940180;29;20257;-95
2021/03/22 14:10:19;;;;;;;10.45;7.88;;;;;;;;;;4952374;29;20250;-95
2021/03/22 14:12:46;;;;;;;6.35;5.75;;;;;;;;;;4952126;29;20210;-92
2021/03/22 14:15:15;;;;;;;8.45;6.60;;;;;;;;;;4950641;29;20204;-94
2021/03/22 14:17:42;;;;;;;5.85;5.25;;;;;;;;;;4951356;29;20233;-96
2021/03/22 14:20:10;;;;;;;9.15;7.03;;;;;;;;;;4955199;28;20216;-94
2021/03/22 14:22:36;;;;;;;10.05;7.30;;;;;;;;;;4951073;29;20219;-96
2021/03/22 14:25:04;;;;;;;5.80;5.20;;;;;;;;;;4952659;29;20272;-96
2021/03/22 14:27:30;;;;;;;6.70;4.70;;;;;;;;;;4948004;29;20208;-94
2021/03/22 14:29:57;;;;;;;6.75;5.30;;;;;;;;;;4957037;29;20204;-96
2021/03/22 14:32:24;;;;;;;6.15;4.80;;;;;;;;;;4962013;29;20212;-96
2021/03/22 14:34:50;;;;;;;6.20;5.28;;;;;;;;;;4952608;29;20240;-94
2021/03/22 14:37:18;;;;;;;5.63;5.13;;;;;;;;;;4950398;28;20229;-95
2021/03/22 14:39:44;;;;;;;6.55;5.85;;;;;;;;;;4959474;28;20492;-95
2021/03/22 14:42:10;;;;;;;9.70;6.13;;;;;;;;;;4954146;29;20239;-95
2021/03/22 14:44:38;;;;;;;7.85;6.50;;;;;;;;;;4954329;29;20698;-95
2021/03/22 14:47:04;;;;;;;8.00;6.30;;;;;;;;;;4951679;29;20205;-94
2021/03/22 14:49:30;;;;;;;10.55;6.60;;;;;;;;;;4950637;29;20215;-94
2021/03/22 14:51:56;;;;;;;8.87;7.50;;;;;;;;;;4947761;29;20206;-95
2021/03/22 14:54:23;;;;;;;7.53;6.10;;;;;;;;;;4953973;29;20467;-94
2021/03/22 14:56:49;;;;;;;9.23;6.63;;;;;;;;;;4955162;29;20469;-95
2021/03/22 14:59:15;;;;;;;5.97;5.30;;;;;;;;;;4944459;29;20591;-93
2021/03/22 15:01:42;;;;;;;6.28;5.13;;;;;;;;;;4935085;29;20496;-94
2021/03/22 15:04:08;;;;;;;7.25;5.90;;;;;;;;;;4955976;29;20210;-93
2021/03/22 15:06:35;;;;;;;6.47;5.80;;;;;;;;;;4953345;29;20208;-95
2021/03/22 15:09:01;;;;;;;10.68;7.32;;;;;;;;;;4959369;29;20216;-93
2021/03/22 15:11:28;;;;;;;8.57;6.47;;;;;;;;;;4950605;29;20206;-94
2021/03/22 15:13:54;;;;;;;13.80;8.45;;;;;;;;;;4945302;29;20203;-94
2021/03/22 15:16:20;;;;;;;9.83;7.13;;;;;;;;;;4947220;29;20205;-93
2021/03/22 15:18:46;;;;;;;12.27;8.20;;;;;;;;;;4940745;29;20502;-94
2021/03/22 15:21:12;;;;;;;8.03;7.00;;;;;;;;;;4951386;29;20224;-94
2021/03/22 15:23:38;;;;;;;9.45;6.38;;;;;;;;;;4965901;28;20456;-93
2021/03/22 15:26:04;;;;;;;7.93;6.18;;;;;;;;;;4964904;29;20221;-93
2021/03/22 15:28:34;;;;;;;11.07;5.50;;;;;;;;;;4965279;29;20204;-93
2021/03/22 15:31:01;;;;;;;7.00;5.97;;;;;;;;;;4956693;29;20218;-93
2021/03/22 15:33:28;;;;;;;6.47;5.40;;;;;;;;;;4960248;29;20213;-94
2021/03/22 15:35:54;;;;;;;8.65;6.60;;;;;;;;;;4953092;29;20217;-93
2021/03/22 15:38:20;;;;;;;7.60;5.90;;;;;;;;;;4949689;29;20238;-95
2021/03/22 15:40:46;;;;;;;9.93;6.15;;;;;;;;;;4960656;29;20223;-95
2021/03/22 15:43:12;;;;;;;8.80;7.90;;;;;;;;;;4954844;29;20240;-94
2021/03/22 15:45:39;;;;;;;7.33;6.50;;;;;;;;;;4950752;29;20500;-93
2021/03/22 15:48:06;;;;;;;5.13;4.63;;;;;;;;;;4959135;29;20456;-92
2021/03/22 15:50:32;;;;;;;9.93;5.63;;;;;;;;;;4959613;29;20259;-92
2021/03/22 15:52:58;;;;;;;10.15;7.75;;;;;;;;;;4957207;29;20208;-94
2021/03/22 15:55:25;;;;;;;9.30;6.35;;;;;;;;;;4953793;29;20224;-93
2021/03/22 15:57:51;;;;;;;6.65;5.97;;;;;;;;;;4955291;29;20638;-93
2021/03/22 16:00:19;;;;;;;7.10;6.17;;;;;;;;;;4951301;29;20232;-94
2021/03/22 16:02:46;;;;;;;9.25;7.80;;;;;;;;;;4955897;29;20535;-93
2021/03/22 16:05:12;;;;;;;8.13;7.25;;;;;;;;;;4955506;29;20209;-94
2021/03/22 16:07:38;;;;;;;7.10;6.40;;;;;;;;;;4950824;29;20211;-93
2021/03/22 16:10:05;;;;;;;8.27;6.18;;;;;;;;;;4957860;29;20218;-94
2021/03/22 16:12:31;;;;;;;9.68;6.68;;;;;;;;;;4954294;29;20205;-93
2021/03/22 16:14:57;;;;;;;9.43;5.63;;;;;;;;;;4959828;29;20255;-95
2021/03/22 16:17:23;;;;;;;7.80;4.95;;;;;;;;;;4952189;28;20484;-95
2021/03/22 16:19:50;;;;;;;6.55;5.63;;;;;;;;;;4955763;29;20216;-95
2021/03/22 16:22:17;;;;;;;5.15;4.32;;;;;;;;;;4953340;29;20212;-94
2021/03/22 16:24:43;;;;;;;8.73;6.70;;;;;;;;;;4956005;29;20211;-96
2021/03/22 16:27:10;;;;;;;6.57;5.57;;;;;;;;;;4964023;29;20215;-96
2021/03/22 16:29:36;;;;;;;8.20;5.63;;;;;;;;;;4956171;29;20211;-96
2021/03/22 16:32:02;;;;;;;6.63;5.82;;;;;;;;;;4960177;29;20212;-95
2021/03/22 16:34:31;;;;;;;6.28;4.57;;;;;;;;;;4957147;28;20217;-95
2021/03/22 16:36:59;;;;;;;8.07;5.15;;;;;;;;;;4963084;29;20223;-95
2021/03/22 16:39:25;;;;;;;7.88;4.43;;;;;;;;;;4961923;29;20220;-94
2021/03/22 16:41:51;;;;;;;5.93;4.60;;;;;;;;;;4956791;29;20211;-94
2021/03/22 16:44:18;;;;;;;7.57;4.57;;;;;;;;;;4951798;29;20306;-95
2021/03/22 16:46:45;;;;;;;9.35;4.93;;;;;;;;;;4955586;29;20235;-93
2021/03/22 16:49:11;;;;;;;6.53;5.15;;;;;;;;;;4951909;29;20212;-96
2021/03/22 16:51:37;;;;;;;6.82;4.30;;;;;;;;;;4951207;29;20557;-96
2021/03/22 16:54:04;;;;;;;6.57;4.17;;;;;;;;;;4947883;29;20224;-94
2021/03/22 16:56:30;;;;;;;5.20;3.95;;;;;;;;;;4956191;29;20458;-96
2021/03/22 16:58:56;;;;;;;6.70;3.92;;;;;;;;;;4953399;29;20235;-95
2021/03/22 17:01:33;;;;;;;6.28;4.65;;;;;;;;;;4955444;29;20270;-96
2021/03/22 17:04:03;;;;;;;3.83;3.47;;;;;;;;;;4965685;29;20291;-96
2021/03/22 17:06:30;;;;;;;5.53;4.13;;;;;;;;;;4953920;29;20314;-96
2021/03/22 17:08:56;;;;;;;6.10;4.60;;;;;;;;;;4947345;29;20291;-96
2021/03/22 17:11:23;;;;;;;6.55;5.07;;;;;;;;;;4946031;29;20216;-94
2021/03/22 17:13:49;;;;;;;5.55;4.95;;;;;;;;;;4957556;29;20292;-93
2021/03/22 17:16:16;;;;;;;6.90;5.95;;;;;;;;;;4961006;29;20210;-94
2021/03/22 17:18:46;;;;;;;7.18;5.55;;;;;;;;;;4951682;29;20231;-96
2021/03/22 17:21:13;;;;;;;6.10;5.47;;;;;;;;;;4963284;28;20211;-95
2021/03/22 17:23:39;;;;;;;6.40;3.75;;;;;;;;;;4952473;29;20208;-94
2021/03/22 17:26:17;;;;;;;5.10;4.43;;;;;;;;;;4960607;29;20219;-94
2021/03/22 17:28:54;;;;;;;6.70;5.03;;;;;;;;;;4965704;29;20209;-95
2021/03/22 17:31:22;;;;;;;7.80;5.75;;;;;;;;;;4952281;29;20218;-94
2021/03/22 17:33:54;;;;;;;8.85;5.45;;;;;;;;;;4956717;29;20216;-95
2021/03/22 17:36:26;;;;;;;7.53;5.40;;;;;;;;;;4944576;29;20579;-93
2021/03/22 17:38:55;;;;;;;7.47;5.90;;;;;;;;;;4950570;28;20649;-95
2021/03/22 17:41:24;;;;;;;6.65;5.43;;;;;;;;;;4953349;29;20216;-95
2021/03/22 17:43:54;;;;;;;7.03;4.53;;;;;;;;;;4954977;29;20240;-95
2021/03/22 17:46:20;;;;;;;4.82;3.85;;;;;;;;;;4951382;29;20212;-94
2021/03/22 17:48:46;;;;;;;4.82;4.32;;;;;;;;;;4959602;29;20223;-94
2021/03/22 17:51:15;;;;;;;5.57;4.90;;;;;;;;;;4951467;29;20212;-96
2021/03/22 17:53:43;;;;;;;5.10;4.53;;;;;;;;;;4951830;29;20512;-93
2021/03/22 17:56:15;;;;;;;5.40;4.65;;;;;;;;;;4955247;29;20286;-95
2021/03/22 17:58:45;;;;;;;7.65;5.40;;;;;;;;;;4954655;29;20227;-95
2021/03/22 18:01:13;;;;;;;5.65;4.15;;;;;;;;;;4955322;29;20203;-94
2021/03/22 18:03:42;;;;;;;5.00;3.80;;;;;;;;;;4957365;29;20231;-96
2021/03/22 18:06:08;;;;;;;5.28;3.65;;;;;;;;;;4956861;29;20192;-95
2021/03/22 18:08:34;;;;;;;6.53;4.70;;;;;;;;;;4949052;29;20197;-95
2021/03/22 18:11:13;;;;;;;5.50;4.40;;;;;;;;;;4944364;29;20210;-96
2021/03/22 18:13:41;;;;;;;5.53;4.30;;;;;;;;;;4959685;28;20205;-93
2021/03/22 18:16:09;;;;;;;5.20;4.57;;;;;;;;;;4949329;29;20209;-96
2021/03/22 18:18:36;;;;;;;5.65;4.20;;;;;;;;;;4950731;29;20224;-93
2021/03/22 18:21:03;;;;;;;4.50;3.10;;;;;;;;;;4949598;29;20213;-96
2021/03/22 18:23:29;;;;;;;4.85;3.13;;;;;;;;;;4961203;29;20203;-96
2021/03/22 18:25:55;;;;;;;3.97;3.47;;;;;;;;;;4958961;29;20203;-95
2021/03/22 18:28:21;;;;;;;4.60;3.13;;;;;;;;;;4953688;29;20236;-96
2021/03/22 18:30:52;;;;;;;5.00;4.10;;;;;;;;;;4950663;29;20441;-96
2021/03/22 18:33:18;;;;;;;4.32;3.38;;;;;;;;;;4946463;29;20233;-96
2021/03/22 18:35:47;;;;;;;5.63;3.70;;;;;;;;;;4963695;29;20208;-95
2021/03/22 18:38:16;;;;;;;8.05;3.78;;;;;;;;;;4948055;29;20230;-96
2021/03/22 18:40:43;;;;;;;4.75;3.60;;;;;;;;;;4962939;28;20280;-94
2021/03/22 18:43:10;;;;;;;3.80;3.40;;;;;;;;;;4951340;29;20252;-95
2021/03/22 18:45:36;;;;;;;4.40;3.25;;;;;;;;;;4966817;28;20209;-94
2021/03/22 18:48:07;;;;;;;5.20;3.83;;;;;;;;;;4939006;29;20271;-96
2021/03/22 18:50:33;;;;;;;5.05;3.70;;;;;;;;;;4937960;29;20249;-94
2021/03/22 18:53:00;;;;;;;4.88;3.13;;;;;;;;;;4950533;29;20208;-93
2021/03/22 18:55:28;;;;;;;4.45;3.72;;;;;;;;;;4941583;29;20260;-95